createdAt,value
2019-04-04T00:00:22.875Z,0.00
2019-04-04T00:01:22.868Z,0.00
2019-04-04T00:02:22.856Z,0.00
2019-04-04T00:03:22.863Z,0.00
2019-04-04T00:04:22.858Z,0.00
2019-04-04T00:05:25.596Z,0.00
2019-04-04T00:06:22.818Z,0.00
2019-04-04T00:07:22.810Z,0.00
2019-04-04T00:08:22.801Z,0.00
2019-04-04T00:09:22.790Z,0.00
2019-04-04T00:10:22.780Z,0.00
2019-04-04T00:11:22.772Z,0.00
2019-04-04T00:12:22.765Z,0.00
2019-04-04T00:13:22.766Z,0.00
2019-04-04T00:14:22.747Z,0.00
2019-04-04T00:15:22.740Z,0.00
2019-04-04T00:16:22.730Z,0.00
2019-04-04T00:17:23.270Z,0.00
2019-04-04T00:18:22.709Z,0.00
2019-04-04T00:19:22.699Z,0.00
2019-04-04T00:20:22.695Z,0.00
2019-04-04T00:21:22.687Z,0.00
2019-04-04T00:22:22.675Z,0.00
2019-04-04T00:23:22.667Z,0.00
2019-04-04T00:24:22.657Z,0.00
2019-04-04T00:25:22.649Z,0.00
2019-04-04T00:26:22.639Z,0.00
2019-04-04T00:27:22.626Z,0.00
2019-04-04T00:28:22.617Z,0.00
2019-04-04T00:29:22.606Z,0.00
2019-04-04T00:30:22.596Z,0.00
2019-04-04T00:31:22.634Z,0.00
2019-04-04T00:32:22.582Z,0.00
2019-04-04T00:33:25.467Z,0.00
2019-04-04T00:34:22.564Z,0.00
2019-04-04T00:35:22.551Z,0.00
2019-04-04T00:36:22.542Z,0.00
2019-04-04T00:37:22.540Z,0.00
2019-04-04T00:38:22.528Z,0.00
2019-04-04T00:39:22.522Z,0.00
2019-04-04T00:40:22.514Z,0.00
2019-04-04T00:41:22.499Z,0.00
2019-04-04T00:42:22.489Z,0.00
2019-04-04T00:43:22.484Z,0.00
2019-04-04T00:44:23.188Z,0.00
2019-04-04T00:45:22.463Z,0.00
2019-04-04T00:46:22.455Z,0.00
2019-04-04T00:47:22.440Z,0.00
2019-04-04T00:48:22.431Z,0.00
2019-04-04T00:49:22.424Z,0.00
2019-04-04T00:50:22.411Z,0.00
2019-04-04T00:51:22.408Z,0.00
2019-04-04T00:52:22.400Z,0.00
2019-04-04T00:53:22.394Z,0.00
2019-04-04T00:54:22.383Z,0.00
2019-04-04T00:55:22.370Z,0.00
2019-04-04T00:56:22.360Z,0.00
2019-04-04T00:57:22.354Z,0.00
2019-04-04T00:58:22.344Z,0.00
2019-04-04T00:59:23.067Z,0.00
2019-04-04T01:00:23.984Z,0.00
2019-04-04T01:01:22.311Z,0.00
2019-04-04T01:02:22.300Z,0.00
2019-04-04T01:03:22.296Z,0.00
2019-04-04T01:04:22.288Z,0.00
2019-04-04T01:05:22.278Z,0.00
2019-04-04T01:06:22.269Z,0.00
2019-04-04T01:07:22.311Z,0.00
2019-04-04T01:08:22.246Z,0.00
2019-04-04T01:09:22.240Z,0.00
2019-04-04T01:10:22.229Z,0.00
2019-04-04T01:11:22.230Z,0.00
2019-04-04T01:12:22.362Z,0.00
2019-04-04T01:13:23.321Z,0.00
2019-04-04T01:14:22.192Z,0.00
2019-04-04T01:15:22.186Z,0.00
2019-04-04T01:16:22.178Z,0.00
2019-04-04T01:17:22.167Z,0.00
2019-04-04T01:18:22.156Z,0.00
2019-04-04T01:19:22.145Z,0.00
2019-04-04T01:20:22.133Z,0.00
2019-04-04T01:21:22.837Z,0.00
2019-04-04T01:22:23.066Z,0.00
2019-04-04T01:23:22.109Z,0.00
2019-04-04T01:24:22.099Z,0.00
2019-04-04T01:25:22.086Z,0.00
2019-04-04T01:26:22.077Z,0.00
2019-04-04T01:27:22.072Z,0.00
2019-04-04T01:28:22.061Z,0.00
2019-04-04T01:29:22.047Z,0.00
2019-04-04T01:30:22.039Z,0.00
2019-04-04T01:31:22.034Z,0.00
2019-04-04T01:32:22.024Z,0.00
2019-04-04T01:33:22.018Z,0.00
2019-04-04T01:34:22.008Z,0.00
2019-04-04T01:35:22.755Z,0.00
2019-04-04T01:36:23.202Z,0.00
2019-04-04T01:37:21.975Z,0.00
2019-04-04T01:38:21.974Z,0.00
2019-04-04T01:39:21.961Z,0.00
2019-04-04T01:40:21.950Z,0.00
2019-04-04T01:41:21.939Z,0.00
2019-04-04T01:42:21.929Z,0.00
2019-04-04T01:43:21.915Z,0.00
2019-04-04T01:44:21.905Z,0.00
2019-04-04T01:45:21.905Z,0.00
2019-04-04T01:46:21.899Z,0.00
2019-04-04T01:47:21.878Z,0.00
2019-04-04T01:48:21.866Z,0.00
2019-04-04T01:49:21.860Z,0.00
2019-04-04T01:50:22.786Z,0.00
2019-04-04T01:51:23.243Z,0.00
2019-04-04T01:52:21.836Z,0.00
2019-04-04T01:53:21.828Z,0.00
2019-04-04T01:54:21.815Z,0.00
2019-04-04T01:55:21.808Z,0.00
2019-04-04T01:56:21.795Z,0.00
2019-04-04T01:57:21.781Z,0.00
2019-04-04T01:58:21.772Z,0.00
2019-04-04T01:59:21.765Z,0.00
2019-04-04T02:00:21.758Z,0.00
2019-04-04T02:01:21.742Z,0.00
2019-04-04T02:02:21.731Z,0.00
2019-04-04T02:03:22.648Z,0.00
2019-04-04T02:04:24.557Z,0.00
2019-04-04T02:05:21.716Z,0.00
2019-04-04T02:06:21.700Z,0.00
2019-04-04T02:07:21.687Z,0.00
2019-04-04T02:08:21.676Z,0.00
2019-04-04T02:09:21.667Z,0.00
2019-04-04T02:10:21.661Z,0.00
2019-04-04T02:11:21.652Z,0.00
2019-04-04T02:12:21.645Z,0.00
2019-04-04T02:13:21.631Z,0.00
2019-04-04T02:14:21.621Z,0.00
2019-04-04T02:15:21.607Z,0.00
2019-04-04T02:16:21.597Z,0.00
2019-04-04T02:17:22.325Z,0.00
2019-04-04T02:18:23.286Z,0.00
2019-04-04T02:19:22.921Z,0.00
2019-04-04T02:20:21.558Z,0.00
2019-04-04T02:21:21.551Z,0.00
2019-04-04T02:22:21.541Z,0.00
2019-04-04T02:23:21.534Z,0.00
2019-04-04T02:24:21.526Z,0.00
2019-04-04T02:25:21.514Z,0.00
2019-04-04T02:26:21.503Z,0.00
2019-04-04T02:27:21.490Z,0.00
2019-04-04T02:28:21.483Z,0.00
2019-04-04T02:29:21.474Z,0.00
2019-04-04T02:30:21.463Z,0.00
2019-04-04T02:31:21.887Z,0.00
2019-04-04T02:32:26.118Z,0.00
2019-04-04T02:33:21.436Z,0.00
2019-04-04T02:34:21.427Z,0.00
2019-04-04T02:35:21.419Z,0.00
2019-04-04T02:36:21.434Z,0.00
2019-04-04T02:37:22.083Z,0.00
2019-04-04T02:38:21.388Z,0.00
2019-04-04T02:39:21.376Z,0.00
2019-04-04T02:40:21.363Z,0.00
2019-04-04T02:41:21.356Z,0.00
2019-04-04T02:42:22.479Z,0.00
2019-04-04T02:43:21.343Z,0.00
2019-04-04T02:44:21.330Z,0.00
2019-04-04T02:45:21.322Z,0.00
2019-04-04T02:46:21.312Z,0.00
2019-04-04T02:47:21.301Z,0.00
2019-04-04T02:48:24.392Z,0.00
2019-04-04T02:49:21.285Z,0.00
2019-04-04T02:50:21.274Z,0.00
2019-04-04T02:51:21.261Z,0.00
2019-04-04T02:52:21.251Z,0.00
2019-04-04T02:53:21.236Z,0.00
2019-04-04T02:54:24.238Z,0.00
2019-04-04T02:55:21.220Z,0.00
2019-04-04T02:56:21.214Z,0.00
2019-04-04T02:57:21.204Z,0.00
2019-04-04T02:58:21.193Z,0.00
2019-04-04T02:59:22.021Z,0.00
2019-04-04T03:00:21.189Z,0.00
2019-04-04T03:01:21.163Z,0.00
2019-04-04T03:02:21.153Z,0.00
2019-04-04T03:03:21.149Z,0.00
2019-04-04T03:04:21.137Z,0.00
2019-04-04T03:05:21.135Z,0.00
2019-04-04T03:06:24.061Z,0.00
2019-04-04T03:07:21.108Z,0.00
2019-04-04T03:08:21.099Z,0.00
2019-04-04T03:09:21.090Z,0.00
2019-04-04T03:10:21.077Z,0.00
2019-04-04T03:11:22.005Z,0.00
2019-04-04T03:12:21.056Z,0.00
2019-04-04T03:13:21.047Z,0.00
2019-04-04T03:14:21.034Z,0.00
2019-04-04T03:15:21.031Z,0.00
2019-04-04T03:16:22.396Z,0.00
2019-04-04T03:17:21.012Z,0.00
2019-04-04T03:18:21.001Z,0.00
2019-04-04T03:19:20.989Z,0.00
2019-04-04T03:20:20.979Z,0.00
2019-04-04T03:21:23.382Z,0.00
2019-04-04T03:22:20.963Z,0.00
2019-04-04T03:23:20.949Z,0.00
2019-04-04T03:24:20.944Z,0.00
2019-04-04T03:25:20.928Z,0.00
2019-04-04T03:26:20.918Z,0.00
2019-04-04T03:27:25.782Z,0.00
2019-04-04T03:28:20.908Z,0.00
2019-04-04T03:29:20.898Z,0.00
2019-04-04T03:30:20.886Z,0.00
2019-04-04T03:31:20.877Z,0.00
2019-04-04T03:32:20.933Z,0.00
2019-04-04T03:33:20.851Z,0.00
2019-04-04T03:34:20.869Z,0.00
2019-04-04T03:35:25.990Z,0.00
2019-04-04T03:36:20.827Z,0.00
2019-04-04T03:37:20.813Z,0.00
2019-04-04T03:38:20.804Z,0.00
2019-04-04T03:39:20.799Z,0.00
2019-04-04T03:40:24.664Z,0.00
2019-04-04T03:41:20.780Z,0.00
2019-04-04T03:42:20.771Z,0.00
2019-04-04T03:43:20.757Z,0.00
2019-04-04T03:44:20.829Z,0.00
2019-04-04T03:45:20.738Z,0.00
2019-04-04T03:46:20.729Z,0.00
2019-04-04T03:47:20.721Z,0.00
2019-04-04T03:48:20.714Z,0.00
2019-04-04T03:49:23.359Z,0.00
2019-04-04T03:50:20.691Z,0.00
2019-04-04T03:51:20.677Z,0.00
2019-04-04T03:52:20.669Z,0.00
2019-04-04T03:53:20.663Z,0.00
2019-04-04T03:54:23.287Z,0.00
2019-04-04T03:55:20.636Z,0.00
2019-04-04T03:56:20.632Z,0.00
2019-04-04T03:57:20.623Z,0.00
2019-04-04T03:58:20.613Z,0.00
2019-04-04T03:59:20.614Z,0.00
2019-04-04T04:00:20.601Z,0.00
2019-04-04T04:01:20.588Z,0.00
2019-04-04T04:02:20.587Z,0.00
2019-04-04T04:03:22.625Z,0.00
2019-04-04T04:04:20.554Z,0.00
2019-04-04T04:05:20.542Z,0.00
2019-04-04T04:06:20.532Z,0.00
2019-04-04T04:07:20.534Z,0.00
2019-04-04T04:08:21.952Z,0.00
2019-04-04T04:09:20.504Z,0.00
2019-04-04T04:10:20.496Z,0.00
2019-04-04T04:11:20.489Z,0.00
2019-04-04T04:12:20.481Z,0.00
2019-04-04T04:13:20.474Z,0.00
2019-04-04T04:14:21.978Z,0.00
2019-04-04T04:15:20.452Z,0.00
2019-04-04T04:16:20.439Z,0.00
2019-04-04T04:17:20.432Z,0.00
2019-04-04T04:18:21.611Z,0.00
2019-04-04T04:19:24.040Z,0.00
2019-04-04T04:20:20.410Z,0.00
2019-04-04T04:21:20.395Z,0.00
2019-04-04T04:22:20.385Z,0.00
2019-04-04T04:23:23.039Z,0.00
2019-04-04T04:24:20.360Z,0.00
2019-04-04T04:25:20.357Z,0.00
2019-04-04T04:26:20.347Z,0.00
2019-04-04T04:27:20.356Z,0.00
2019-04-04T04:28:21.084Z,0.00
2019-04-04T04:29:20.320Z,0.00
2019-04-04T04:30:20.311Z,0.00
2019-04-04T04:31:20.301Z,0.00
2019-04-04T04:32:21.823Z,0.00
2019-04-04T04:33:20.296Z,0.00
2019-04-04T04:34:20.269Z,0.00
2019-04-04T04:35:20.258Z,0.00
2019-04-04T04:36:20.248Z,0.00
2019-04-04T04:37:21.022Z,0.00
2019-04-04T04:38:20.257Z,0.00
2019-04-04T04:39:20.226Z,0.00
2019-04-04T04:40:20.217Z,0.00
2019-04-04T04:41:21.251Z,0.00
2019-04-04T04:42:21.295Z,0.00
2019-04-04T04:43:20.187Z,0.00
2019-04-04T04:44:20.176Z,0.00
2019-04-04T04:45:20.168Z,0.00
2019-04-04T04:46:20.155Z,0.00
2019-04-04T04:47:22.935Z,0.00
2019-04-04T04:48:20.132Z,0.00
2019-04-04T04:49:23.216Z,0.00
2019-04-04T04:50:20.112Z,0.00
2019-04-04T04:51:20.109Z,0.00
2019-04-04T04:52:20.103Z,0.00
2019-04-04T04:53:20.094Z,0.00
2019-04-04T04:54:20.478Z,0.00
2019-04-04T04:55:20.072Z,0.00
2019-04-04T04:56:20.066Z,0.00
2019-04-04T04:57:29.441Z,0.00
2019-04-04T04:58:20.044Z,0.00
2019-04-04T04:59:20.033Z,0.00
2019-04-04T05:00:20.019Z,5.63
2019-04-04T05:01:20.010Z,5.63
2019-04-04T05:02:22.172Z,5.63
2019-04-04T05:03:19.994Z,5.63
2019-04-04T05:04:19.985Z,5.63
2019-04-04T05:05:19.974Z,5.63
2019-04-04T05:06:19.964Z,5.63
2019-04-04T05:07:19.950Z,5.63
2019-04-04T05:08:19.944Z,5.63
2019-04-04T05:09:19.935Z,5.63
2019-04-04T05:10:19.924Z,5.63
2019-04-04T05:11:19.945Z,11.25
2019-04-04T05:12:21.740Z,11.25
2019-04-04T05:13:19.898Z,11.25
2019-04-04T05:14:19.885Z,11.25
2019-04-04T05:15:21.430Z,11.25
2019-04-04T05:16:19.873Z,11.25
2019-04-04T05:17:19.860Z,11.25
2019-04-04T05:18:19.850Z,11.25
2019-04-04T05:19:19.839Z,11.25
2019-04-04T05:20:19.825Z,11.25
2019-04-04T05:21:25.619Z,11.25
2019-04-04T05:22:19.807Z,11.25
2019-04-04T05:23:19.802Z,11.25
2019-04-04T05:24:19.793Z,11.25
2019-04-04T05:25:19.800Z,11.25
2019-04-04T05:26:19.776Z,11.25
2019-04-04T05:27:19.769Z,11.25
2019-04-04T05:28:19.754Z,16.88
2019-04-04T05:29:19.748Z,16.88
2019-04-04T05:30:20.472Z,16.88
2019-04-04T05:31:19.725Z,16.88
2019-04-04T05:32:21.765Z,22.50
2019-04-04T05:33:22.613Z,16.88
2019-04-04T05:34:19.703Z,16.88
2019-04-04T05:35:19.688Z,16.88
2019-04-04T05:36:19.681Z,16.88
2019-04-04T05:37:19.669Z,16.88
2019-04-04T05:38:19.658Z,22.50
2019-04-04T05:39:19.654Z,22.50
2019-04-04T05:40:23.235Z,22.50
2019-04-04T05:41:19.630Z,28.13
2019-04-04T05:42:19.619Z,28.13
2019-04-04T05:43:19.619Z,28.13
2019-04-04T05:44:19.606Z,22.50
2019-04-04T05:45:19.614Z,28.13
2019-04-04T05:46:19.778Z,28.13
2019-04-04T05:47:22.879Z,28.13
2019-04-04T05:48:19.568Z,33.75
2019-04-04T05:49:19.559Z,39.38
2019-04-04T05:50:19.546Z,39.38
2019-04-04T05:51:19.587Z,39.38
2019-04-04T05:52:19.523Z,45.00
2019-04-04T05:53:21.437Z,45.00
2019-04-04T05:54:19.505Z,45.00
2019-04-04T05:55:19.498Z,45.00
2019-04-04T05:56:19.488Z,50.63
2019-04-04T05:57:20.126Z,50.63
2019-04-04T05:58:21.733Z,56.25
2019-04-04T05:59:19.458Z,61.88
2019-04-04T06:00:19.449Z,56.25
2019-04-04T06:01:19.476Z,50.63
2019-04-04T06:02:19.435Z,50.63
2019-04-04T06:03:19.440Z,50.63
2019-04-04T06:04:20.176Z,56.25
2019-04-04T06:05:19.413Z,56.25
2019-04-04T06:06:19.390Z,61.88
2019-04-04T06:07:19.388Z,67.50
2019-04-04T06:08:19.376Z,73.13
2019-04-04T06:09:19.387Z,78.75
2019-04-04T06:10:19.358Z,78.75
2019-04-04T06:11:21.642Z,73.13
2019-04-04T06:12:19.336Z,73.13
2019-04-04T06:13:22.143Z,73.13
2019-04-04T06:14:20.689Z,73.13
2019-04-04T06:15:19.315Z,73.13
2019-04-04T06:16:19.305Z,73.13
2019-04-04T06:17:19.290Z,78.75
2019-04-04T06:18:19.353Z,78.75
2019-04-04T06:19:19.277Z,78.75
2019-04-04T06:20:19.268Z,84.38
2019-04-04T06:21:19.306Z,84.38
2019-04-04T06:22:21.130Z,84.38
2019-04-04T06:23:20.581Z,84.38
2019-04-04T06:24:19.225Z,84.38
2019-04-04T06:25:19.221Z,84.38
2019-04-04T06:26:19.206Z,90.00
2019-04-04T06:27:19.203Z,95.63
2019-04-04T06:28:19.192Z,95.63
2019-04-04T06:29:19.187Z,95.63
2019-04-04T06:30:20.236Z,101.25
2019-04-04T06:31:19.164Z,101.25
2019-04-04T06:32:19.155Z,95.63
2019-04-04T06:33:19.151Z,101.25
2019-04-04T06:34:19.144Z,101.25
2019-04-04T06:35:19.129Z,106.88
2019-04-04T06:36:19.119Z,112.50
2019-04-04T06:37:19.989Z,123.75
2019-04-04T06:38:19.110Z,135.00
2019-04-04T06:39:19.093Z,151.88
2019-04-04T06:40:19.084Z,168.75
2019-04-04T06:41:19.077Z,202.50
2019-04-04T06:42:19.068Z,230.63
2019-04-04T06:43:19.055Z,241.88
2019-04-04T06:44:19.050Z,247.50
2019-04-04T06:45:19.035Z,247.50
2019-04-04T06:46:22.478Z,253.13
2019-04-04T06:47:19.023Z,247.50
2019-04-04T06:48:19.014Z,236.25
2019-04-04T06:49:19.001Z,225.00
2019-04-04T06:50:18.990Z,219.38
2019-04-04T06:51:18.984Z,202.50
2019-04-04T06:52:19.243Z,191.25
2019-04-04T06:53:20.367Z,185.63
2019-04-04T06:54:18.962Z,174.38
2019-04-04T06:55:18.948Z,174.38
2019-04-04T06:56:18.940Z,174.38
2019-04-04T06:57:18.931Z,174.38
2019-04-04T06:58:18.921Z,174.38
2019-04-04T06:59:18.916Z,174.38
2019-04-04T07:00:18.906Z,180.00
2019-04-04T07:01:21.137Z,180.00
2019-04-04T07:02:18.887Z,185.63
2019-04-04T07:03:18.873Z,174.38
2019-04-04T07:04:18.869Z,168.75
2019-04-04T07:05:18.865Z,163.13
2019-04-04T07:06:18.855Z,163.13
2019-04-04T07:07:18.838Z,157.50
2019-04-04T07:08:18.829Z,151.88
2019-04-04T07:09:19.257Z,151.88
2019-04-04T07:10:20.968Z,157.50
2019-04-04T07:11:21.544Z,168.75
2019-04-04T07:12:24.372Z,174.38
2019-04-04T07:13:21.960Z,174.38
2019-04-04T07:14:18.783Z,174.38
2019-04-04T07:15:18.768Z,180.00
2019-04-04T07:16:18.763Z,174.38
2019-04-04T07:17:18.751Z,174.38
2019-04-04T07:18:18.746Z,174.38
2019-04-04T07:19:18.737Z,174.38
2019-04-04T07:20:18.726Z,168.75
2019-04-04T07:21:20.233Z,174.38
2019-04-04T07:22:20.550Z,174.38
2019-04-04T07:23:18.701Z,180.00
2019-04-04T07:24:18.694Z,191.25
2019-04-04T07:25:18.686Z,196.88
2019-04-04T07:26:18.676Z,202.50
2019-04-04T07:27:18.664Z,213.75
2019-04-04T07:28:19.102Z,236.25
2019-04-04T07:29:18.649Z,264.38
2019-04-04T07:30:18.638Z,286.88
2019-04-04T07:31:18.635Z,320.63
2019-04-04T07:32:18.625Z,354.38
2019-04-04T07:33:21.223Z,388.13
2019-04-04T07:34:18.606Z,433.13
2019-04-04T07:35:20.900Z,450.00
2019-04-04T07:36:20.239Z,444.38
2019-04-04T07:37:21.883Z,427.50
2019-04-04T07:38:18.576Z,399.38
2019-04-04T07:39:18.563Z,399.38
2019-04-04T07:40:20.260Z,405.00
2019-04-04T07:41:18.546Z,410.63
2019-04-04T07:42:18.598Z,416.25
2019-04-04T07:43:19.380Z,416.25
2019-04-04T07:44:18.528Z,399.38
2019-04-04T07:45:18.517Z,376.88
2019-04-04T07:46:18.524Z,365.63
2019-04-04T07:47:18.498Z,354.38
2019-04-04T07:48:18.657Z,348.75
2019-04-04T07:49:18.485Z,337.50
2019-04-04T07:50:18.476Z,331.88
2019-04-04T07:51:18.474Z,331.88
2019-04-04T07:52:18.466Z,331.88
2019-04-04T07:53:18.455Z,326.25
2019-04-04T07:54:18.450Z,320.63
2019-04-04T07:55:18.444Z,320.63
2019-04-04T07:56:18.435Z,298.13
2019-04-04T07:57:19.731Z,286.88
2019-04-04T07:58:18.418Z,303.75
2019-04-04T07:59:18.406Z,354.38
2019-04-04T08:00:18.399Z,410.63
2019-04-04T08:01:18.393Z,461.25
2019-04-04T08:02:18.384Z,483.75
2019-04-04T08:03:18.382Z,478.13
2019-04-04T08:04:18.374Z,461.25
2019-04-04T08:05:18.368Z,427.50
2019-04-04T08:06:18.362Z,393.75
2019-04-04T08:07:18.350Z,365.63
2019-04-04T08:08:18.344Z,337.50
2019-04-04T08:09:18.340Z,303.75
2019-04-04T08:10:20.813Z,298.13
2019-04-04T08:11:18.321Z,298.13
2019-04-04T08:12:18.313Z,292.50
2019-04-04T08:13:18.304Z,281.25
2019-04-04T08:14:18.295Z,275.63
2019-04-04T08:15:18.292Z,270.00
2019-04-04T08:16:18.285Z,281.25
2019-04-04T08:17:19.109Z,292.50
2019-04-04T08:18:18.271Z,298.13
2019-04-04T08:19:18.259Z,270.00
2019-04-04T08:20:18.251Z,270.00
2019-04-04T08:21:18.248Z,270.00
2019-04-04T08:22:18.406Z,281.25
2019-04-04T08:23:18.235Z,298.13
2019-04-04T08:24:18.229Z,303.75
2019-04-04T08:25:18.219Z,309.38
2019-04-04T08:26:18.209Z,309.38
2019-04-04T08:27:18.207Z,303.75
2019-04-04T08:28:18.201Z,298.13
2019-04-04T08:29:18.188Z,303.75
2019-04-04T08:30:18.181Z,303.75
2019-04-04T08:31:18.169Z,292.50
2019-04-04T08:32:18.161Z,281.25
2019-04-04T08:33:18.153Z,286.88
2019-04-04T08:34:18.144Z,281.25
2019-04-04T08:35:18.143Z,281.25
2019-04-04T08:36:18.134Z,281.25
2019-04-04T08:37:18.129Z,286.88
2019-04-04T08:38:18.121Z,292.50
2019-04-04T08:39:18.109Z,303.75
2019-04-04T08:40:18.101Z,298.13
2019-04-04T08:41:18.099Z,286.88
2019-04-04T08:42:18.091Z,292.50
2019-04-04T08:43:18.079Z,326.25
2019-04-04T08:44:18.072Z,331.88
2019-04-04T08:45:18.061Z,298.13
2019-04-04T08:46:19.929Z,270.00
2019-04-04T08:47:18.053Z,275.63
2019-04-04T08:48:18.042Z,281.25
2019-04-04T08:49:18.036Z,270.00
2019-04-04T08:50:18.032Z,270.00
2019-04-04T08:51:18.017Z,270.00
2019-04-04T08:52:20.698Z,275.63
2019-04-04T08:53:17.999Z,275.63
2019-04-04T08:54:17.991Z,281.25
2019-04-04T08:55:17.989Z,275.63
2019-04-04T08:56:17.980Z,270.00
2019-04-04T08:57:17.967Z,270.00
2019-04-04T08:58:17.959Z,275.63
2019-04-04T08:59:17.958Z,275.63
2019-04-04T09:00:17.949Z,258.75
2019-04-04T09:01:17.961Z,258.75
2019-04-04T09:02:17.943Z,258.75
2019-04-04T09:03:17.932Z,270.00
2019-04-04T09:04:17.918Z,270.00
2019-04-04T09:05:17.915Z,275.63
2019-04-04T09:06:17.903Z,275.63
2019-04-04T09:07:17.906Z,275.63
2019-04-04T09:08:17.896Z,270.00
2019-04-04T09:09:17.883Z,264.38
2019-04-04T09:10:17.876Z,264.38
2019-04-04T09:11:17.866Z,281.25
2019-04-04T09:12:17.857Z,286.88
2019-04-04T09:13:17.852Z,275.63
2019-04-04T09:14:17.845Z,281.25
2019-04-04T09:15:17.832Z,292.50
2019-04-04T09:16:17.826Z,281.25
2019-04-04T09:17:17.821Z,270.00
2019-04-04T09:18:17.819Z,270.00
2019-04-04T09:19:17.809Z,275.63
2019-04-04T09:20:17.809Z,281.25
2019-04-04T09:21:17.796Z,281.25
2019-04-04T09:22:17.787Z,286.88
2019-04-04T09:23:17.776Z,303.75
2019-04-04T09:24:17.770Z,326.25
2019-04-04T09:25:17.759Z,326.25
2019-04-04T09:26:17.754Z,320.63
2019-04-04T09:27:17.748Z,315.00
2019-04-04T09:28:17.744Z,315.00
2019-04-04T09:29:17.736Z,298.13
2019-04-04T09:30:17.722Z,286.88
2019-04-04T09:31:17.721Z,275.63
2019-04-04T09:32:17.715Z,275.63
2019-04-04T09:33:17.708Z,275.63
2019-04-04T09:34:17.702Z,281.25
2019-04-04T09:35:17.689Z,281.25
2019-04-04T09:36:17.683Z,281.25
2019-04-04T09:37:17.684Z,281.25
2019-04-04T09:38:17.666Z,281.25
2019-04-04T09:39:17.663Z,281.25
2019-04-04T09:40:17.656Z,281.25
2019-04-04T09:41:17.648Z,281.25
2019-04-04T09:42:17.639Z,281.25
2019-04-04T09:43:17.628Z,281.25
2019-04-04T09:44:17.626Z,286.88
2019-04-04T09:45:17.617Z,292.50
2019-04-04T09:46:17.609Z,298.13
2019-04-04T09:47:17.597Z,303.75
2019-04-04T09:48:17.589Z,309.38
2019-04-04T09:49:17.588Z,320.63
2019-04-04T09:50:17.578Z,320.63
2019-04-04T09:51:17.576Z,320.63
2019-04-04T09:52:17.568Z,326.25
2019-04-04T09:53:17.558Z,331.88
2019-04-04T09:54:19.363Z,337.50
2019-04-04T09:55:17.538Z,337.50
2019-04-04T09:56:17.534Z,337.50
2019-04-04T09:57:17.530Z,337.50
2019-04-04T09:58:17.519Z,331.88
2019-04-04T09:59:17.518Z,331.88
2019-04-04T10:00:17.509Z,348.75
2019-04-04T10:01:17.498Z,360.00
2019-04-04T10:02:17.500Z,354.38
2019-04-04T10:03:17.487Z,354.38
2019-04-04T10:04:17.618Z,371.25
2019-04-04T10:05:17.473Z,371.25
2019-04-04T10:06:17.462Z,371.25
2019-04-04T10:07:17.450Z,371.25
2019-04-04T10:08:17.444Z,348.75
2019-04-04T10:09:17.440Z,354.38
2019-04-04T10:10:17.430Z,365.63
2019-04-04T10:11:17.609Z,371.25
2019-04-04T10:12:17.420Z,376.88
2019-04-04T10:13:17.414Z,376.88
2019-04-04T10:14:17.409Z,360.00
2019-04-04T10:15:17.399Z,343.13
2019-04-04T10:16:17.391Z,331.88
2019-04-04T10:17:17.389Z,337.50
2019-04-04T10:18:17.382Z,348.75
2019-04-04T10:19:17.368Z,365.63
2019-04-04T10:20:17.363Z,382.50
2019-04-04T10:21:17.351Z,399.38
2019-04-04T10:22:17.347Z,393.75
2019-04-04T10:23:17.344Z,399.38
2019-04-04T10:24:17.333Z,416.25
2019-04-04T10:25:17.326Z,455.63
2019-04-04T10:26:17.319Z,506.25
2019-04-04T10:27:17.304Z,545.63
2019-04-04T10:28:17.298Z,556.88
2019-04-04T10:29:17.294Z,556.88
2019-04-04T10:30:17.287Z,556.88
2019-04-04T10:31:17.283Z,556.88
2019-04-04T10:32:17.274Z,579.38
2019-04-04T10:33:17.266Z,590.63
2019-04-04T10:34:17.262Z,568.13
2019-04-04T10:35:17.254Z,534.38
2019-04-04T10:36:17.248Z,506.25
2019-04-04T10:37:17.236Z,489.38
2019-04-04T10:38:17.231Z,483.75
2019-04-04T10:39:28.259Z,472.50
2019-04-04T10:40:17.211Z,461.25
2019-04-04T10:41:17.206Z,455.63
2019-04-04T10:42:17.203Z,450.00
2019-04-04T10:43:17.194Z,455.63
2019-04-04T10:44:17.187Z,438.75
2019-04-04T10:45:17.183Z,427.50
2019-04-04T10:46:17.178Z,427.50
2019-04-04T10:47:17.166Z,421.88
2019-04-04T10:48:17.157Z,405.00
2019-04-04T10:49:17.156Z,405.00
2019-04-04T10:50:17.149Z,399.38
2019-04-04T10:51:17.138Z,405.00
2019-04-04T10:52:17.132Z,416.25
2019-04-04T10:53:17.121Z,427.50
2019-04-04T10:54:17.174Z,444.38
2019-04-04T10:55:17.113Z,461.25
2019-04-04T10:56:17.106Z,506.25
2019-04-04T10:57:17.100Z,545.63
2019-04-04T10:58:17.139Z,551.25
2019-04-04T10:59:17.082Z,545.63
2019-04-04T11:00:17.076Z,511.88
2019-04-04T11:01:17.067Z,517.50
2019-04-04T11:02:17.058Z,545.63
2019-04-04T11:03:17.057Z,556.88
2019-04-04T11:04:17.050Z,601.88
2019-04-04T11:05:17.038Z,641.25
2019-04-04T11:06:17.030Z,601.88
2019-04-04T11:07:17.030Z,523.13
2019-04-04T11:08:17.023Z,455.63
2019-04-04T11:09:17.019Z,421.88
2019-04-04T11:10:17.014Z,393.75
2019-04-04T11:11:17.002Z,365.63
2019-04-04T11:12:16.995Z,337.50
2019-04-04T11:13:16.992Z,315.00
2019-04-04T11:14:16.983Z,292.50
2019-04-04T11:15:16.983Z,275.63
2019-04-04T11:16:24.542Z,264.38
2019-04-04T11:17:16.966Z,270.00
2019-04-04T11:18:16.961Z,281.25
2019-04-04T11:19:16.949Z,281.25
2019-04-04T11:20:16.944Z,270.00
2019-04-04T11:21:16.940Z,253.13
2019-04-04T11:22:16.934Z,236.25
2019-04-04T11:23:16.924Z,225.00
2019-04-04T11:24:16.918Z,213.75
2019-04-04T11:25:16.914Z,202.50
2019-04-04T11:26:16.908Z,196.88
2019-04-04T11:27:17.634Z,196.88
2019-04-04T11:28:16.897Z,208.13
2019-04-04T11:29:16.890Z,225.00
2019-04-04T11:30:16.890Z,247.50
2019-04-04T11:31:16.873Z,258.75
2019-04-04T11:32:16.868Z,253.13
2019-04-04T11:33:16.857Z,236.25
2019-04-04T11:34:16.850Z,230.63
2019-04-04T11:35:16.848Z,225.00
2019-04-04T11:36:16.844Z,219.38
2019-04-04T11:37:16.830Z,208.13
2019-04-04T11:38:16.824Z,202.50
2019-04-04T11:39:16.874Z,196.88
2019-04-04T11:40:16.816Z,191.25
2019-04-04T11:41:16.819Z,202.50
2019-04-04T11:42:16.800Z,230.63
2019-04-04T11:43:16.790Z,264.38
2019-04-04T11:44:16.781Z,286.88
2019-04-04T11:45:16.779Z,309.38
2019-04-04T11:46:16.766Z,320.63
2019-04-04T11:47:16.763Z,320.63
2019-04-04T11:48:16.757Z,309.38
2019-04-04T11:49:16.749Z,298.13
2019-04-04T11:50:16.740Z,286.88
2019-04-04T11:51:16.727Z,286.88
2019-04-04T11:52:16.721Z,286.88
2019-04-04T11:53:16.719Z,275.63
2019-04-04T11:54:16.712Z,270.00
2019-04-04T11:55:16.699Z,270.00
2019-04-04T11:56:16.693Z,270.00
2019-04-04T11:57:16.689Z,281.25
2019-04-04T11:58:16.680Z,292.50
2019-04-04T11:59:16.683Z,298.13
2019-04-04T12:00:16.670Z,298.13
2019-04-04T12:01:16.662Z,292.50
2019-04-04T12:02:16.651Z,281.25
2019-04-04T12:03:16.640Z,281.25
2019-04-04T12:04:16.633Z,281.25
2019-04-04T12:05:16.629Z,303.75
2019-04-04T12:06:16.621Z,326.25
2019-04-04T12:07:16.618Z,348.75
2019-04-04T12:08:16.611Z,360.00
2019-04-04T12:09:16.601Z,348.75
2019-04-04T12:10:16.591Z,326.25
2019-04-04T12:11:16.589Z,309.38
2019-04-04T12:12:16.581Z,315.00
2019-04-04T12:13:16.573Z,315.00
2019-04-04T12:14:16.629Z,298.13
2019-04-04T12:15:16.550Z,286.88
2019-04-04T12:16:16.546Z,286.88
2019-04-04T12:17:16.537Z,292.50
2019-04-04T12:18:16.529Z,292.50
2019-04-04T12:19:16.526Z,258.75
2019-04-04T12:20:16.519Z,230.63
2019-04-04T12:21:16.517Z,219.38
2019-04-04T12:22:16.506Z,213.75
2019-04-04T12:23:16.497Z,208.13
2019-04-04T12:24:16.494Z,208.13
2019-04-04T12:25:16.485Z,236.25
2019-04-04T12:26:16.479Z,270.00
2019-04-04T12:27:16.468Z,298.13
2019-04-04T12:28:16.461Z,309.38
2019-04-04T12:29:16.450Z,315.00
2019-04-04T12:30:16.444Z,326.25
2019-04-04T12:31:16.441Z,326.25
2019-04-04T12:32:16.435Z,326.25
2019-04-04T12:33:16.425Z,331.88
2019-04-04T12:34:16.419Z,309.38
2019-04-04T12:35:16.408Z,275.63
2019-04-04T12:36:24.482Z,258.75
2019-04-04T12:37:16.396Z,258.75
2019-04-04T12:38:16.387Z,258.75
2019-04-04T12:39:16.385Z,270.00
2019-04-04T12:40:20.719Z,258.75
2019-04-04T12:41:16.367Z,236.25
2019-04-04T12:42:16.362Z,213.75
2019-04-04T12:43:16.358Z,202.50
2019-04-04T12:44:16.351Z,208.13
2019-04-04T12:45:16.344Z,219.38
2019-04-04T12:46:16.334Z,225.00
2019-04-04T12:47:16.326Z,213.75
2019-04-04T12:48:16.317Z,191.25
2019-04-04T12:49:16.311Z,168.75
2019-04-04T12:50:16.303Z,163.13